Time;durP1;ratioP1;P1;durP2;ratioP2;P2;SDS_P1;SDS_P2;PMS_P1;PMS_P2;Temp;Humidity;BMP_temperature;BMP_pressure;BME280_temperature;BME280_humidity;BME280_pressure;Samples;Min_cycle;Max_cycle;Signal;HPM_P1;HPM_P2
2023/12/06 00:01:21;;;;;;;40.45;25.17;;;0.90;99.90;;;;;;5094101;28;20043;-75
2023/12/06 00:03:47;;;;;;;38.45;25.17;;;0.80;99.90;;;;;;5115016;27;20143;-75
2023/12/06 00:06:13;;;;;;;39.40;25.83;;;0.90;99.90;;;;;;5110880;28;20481;-75
2023/12/06 00:08:39;;;;;;;39.53;24.95;;;0.90;99.90;;;;;;5125362;27;20490;-75
2023/12/06 00:11:05;;;;;;;36.20;23.55;;;0.90;99.90;;;;;;5129048;27;20104;-76
2023/12/06 00:13:30;;;;;;;36.03;24.42;;;0.90;99.90;;;;;;5102610;28;20122;-75
2023/12/06 00:15:56;;;;;;;41.45;25.52;;;0.80;99.90;;;;;;5087661;27;20397;-75
2023/12/06 00:18:22;;;;;;;38.03;24.33;;;0.90;99.90;;;;;;5095398;27;20039;-75
2023/12/06 00:20:47;;;;;;;36.95;23.75;;;0.80;99.90;;;;;;5099721;28;20317;-75
2023/12/06 00:23:13;;;;;;;37.25;24.60;;;0.80;99.90;;;;;;5099319;27;20042;-75
2023/12/06 00:25:39;;;;;;;38.42;24.60;;;0.80;99.90;;;;;;5130480;27;20074;-75
2023/12/06 00:28:04;;;;;;;34.38;22.45;;;0.90;99.90;;;;;;5112713;27;20031;-75
2023/12/06 00:30:30;;;;;;;36.95;22.92;;;0.80;99.90;;;;;;5127529;27;20055;-75
2023/12/06 00:32:56;;;;;;;39.70;24.35;;;0.90;99.90;;;;;;5110212;27;20041;-75
2023/12/06 00:35:21;;;;;;;36.90;22.75;;;0.80;99.90;;;;;;5120135;27;20046;-75
2023/12/06 00:37:47;;;;;;;32.80;21.50;;;0.80;99.90;;;;;;5129994;27;20042;-75
2023/12/06 00:40:13;;;;;;;38.00;23.83;;;0.90;99.90;;;;;;5094282;28;20036;-75
2023/12/06 00:42:39;;;;;;;35.65;23.52;;;0.80;99.90;;;;;;5097492;27;20038;-75
2023/12/06 00:45:05;;;;;;;33.92;21.77;;;0.90;99.90;;;;;;5093160;28;20047;-75
2023/12/06 00:47:31;;;;;;;40.92;25.17;;;0.90;99.90;;;;;;5108714;28;20054;-75
2023/12/06 00:49:56;;;;;;;36.35;23.92;;;0.90;99.90;;;;;;5104518;27;20122;-75
2023/12/06 00:52:22;;;;;;;36.97;24.25;;;0.90;99.90;;;;;;5119572;28;20048;-75
2023/12/06 00:54:49;;;;;;;36.08;23.77;;;0.90;99.90;;;;;;5124181;28;20035;-75
2023/12/06 00:57:15;;;;;;;;;;;0.90;99.90;;;;;;5130350;28;20493;-75
2023/12/06 00:59:40;;;;;;;32.85;20.48;;;0.90;99.90;;;;;;5125765;28;19915;-75
2023/12/06 01:02:06;;;;;;;31.25;20.10;;;0.90;99.90;;;;;;5114195;28;20077;-75
2023/12/06 01:04:36;;;;;;;28.17;17.83;;;0.90;99.90;;;;;;5107637;28;20039;-75
2023/12/06 01:07:01;;;;;;;26.67;17.52;;;0.80;99.90;;;;;;5112914;28;20058;-75
2023/12/06 01:09:27;;;;;;;32.03;20.60;;;0.80;99.90;;;;;;5127130;28;20054;-75
2023/12/06 01:11:53;;;;;;;36.35;22.50;;;0.90;99.90;;;;;;5130206;28;20039;-75
2023/12/06 01:14:18;;;;;;;33.25;20.88;;;0.80;99.90;;;;;;5097378;28;20075;-75
2023/12/06 01:16:44;;;;;;;33.35;21.55;;;0.90;99.90;;;;;;5109507;28;20043;-76
2023/12/06 01:19:10;;;;;;;31.75;19.88;;;0.90;99.90;;;;;;5096323;28;20559;-75
2023/12/06 01:21:35;;;;;;;34.33;22.52;;;0.90;99.90;;;;;;5119619;27;20059;-75
2023/12/06 01:24:01;;;;;;;33.17;21.20;;;0.90;99.90;;;;;;5120825;27;20047;-75
2023/12/06 01:26:27;;;;;;;33.92;21.42;;;0.90;99.90;;;;;;5119611;27;20040;-75
2023/12/06 01:28:52;;;;;;;33.60;21.30;;;0.90;99.90;;;;;;5128679;27;20054;-75
2023/12/06 01:31:18;;;;;;;33.80;20.92;;;0.90;99.90;;;;;;5129066;27;20358;-75
2023/12/06 01:33:44;;;;;;;31.90;20.63;;;0.90;99.90;;;;;;5118262;27;20035;-74
2023/12/06 01:36:10;;;;;;;32.78;21.10;;;0.90;99.90;;;;;;5132817;27;20043;-75
2023/12/06 01:38:35;;;;;;;33.65;20.98;;;0.90;99.90;;;;;;5098187;27;20083;-75
2023/12/06 01:41:02;;;;;;;33.80;21.17;;;0.90;99.90;;;;;;5102164;28;20557;-75
2023/12/06 01:43:27;;;;;;;29.25;19.52;;;0.90;99.90;;;;;;5098576;27;20118;-75
2023/12/06 01:45:53;;;;;;;29.38;19.33;;;1.00;99.90;;;;;;5098993;27;20449;-75
2023/12/06 01:48:21;;;;;;;27.33;18.25;;;1.00;99.90;;;;;;5123860;27;20122;-75
2023/12/06 01:50:48;;;;;;;32.17;20.25;;;1.00;99.90;;;;;;5080486;28;20387;-75
2023/12/06 01:53:15;;;;;;;31.45;19.83;;;1.00;99.90;;;;;;5095207;27;20126;-75
2023/12/06 01:55:41;;;;;;;;;;;1.00;99.90;;;;;;5131876;27;20118;-75
2023/12/06 01:58:07;;;;;;;32.42;20.52;;;1.00;99.90;;;;;;5125588;27;20018;-75
2023/12/06 02:00:33;;;;;;;30.30;20.50;;;1.00;99.90;;;;;;5113546;28;20126;-75
2023/12/06 02:02:59;;;;;;;29.83;20.27;;;1.10;99.90;;;;;;5109165;27;20214;-75
2023/12/06 02:05:25;;;;;;;28.17;18.55;;;1.10;99.90;;;;;;5117373;27;20130;-75
2023/12/06 02:07:51;;;;;;;26.52;18.48;;;1.10;99.90;;;;;;5099162;27;20111;-75
2023/12/06 02:10:17;;;;;;;27.50;18.42;;;1.10;99.90;;;;;;5124418;27;20031;-75
2023/12/06 02:12:43;;;;;;;24.83;17.65;;;1.10;99.90;;;;;;5082337;27;20122;-75
2023/12/06 02:15:09;;;;;;;28.58;19.05;;;1.10;99.90;;;;;;5115296;27;20385;-75
2023/12/06 02:17:35;;;;;;;26.05;17.80;;;1.10;99.90;;;;;;5115545;27;20047;-75
2023/12/06 02:20:02;;;;;;;23.23;15.75;;;1.10;99.90;;;;;;5114036;27;20125;-74
2023/12/06 02:22:29;;;;;;;23.38;16.85;;;1.10;99.90;;;;;;5109161;27;20059;-75
2023/12/06 02:24:59;;;;;;;24.75;17.15;;;1.10;99.90;;;;;;5110725;27;20043;-75
2023/12/06 02:27:24;;;;;;;27.40;18.08;;;1.10;99.90;;;;;;5115926;27;20131;-75
2023/12/06 02:29:50;;;;;;;22.67;16.05;;;1.10;99.90;;;;;;5131029;27;20410;-75
2023/12/06 02:32:16;;;;;;;24.83;16.35;;;1.20;99.90;;;;;;5102476;28;20052;-75
2023/12/06 02:34:44;;;;;;;24.65;16.60;;;1.10;99.90;;;;;;5111146;27;20121;-74
2023/12/06 02:37:14;;;;;;;24.38;15.73;;;1.10;99.90;;;;;;5115808;27;20043;-74
2023/12/06 02:39:42;;;;;;;21.08;15.05;;;1.10;99.90;;;;;;5116452;27;20039;-75
2023/12/06 02:42:11;;;;;;;20.20;14.48;;;1.20;99.90;;;;;;5123621;27;20724;-75
2023/12/06 02:44:37;;;;;;;21.55;15.23;;;1.10;99.90;;;;;;5112402;27;20055;-74
2023/12/06 02:47:03;;;;;;;21.48;14.82;;;1.20;99.90;;;;;;5115028;27;20034;-75
2023/12/06 02:49:28;;;;;;;20.58;14.90;;;1.10;99.90;;;;;;5114115;27;20058;-75
2023/12/06 02:51:54;;;;;;;15.98;11.55;;;1.20;99.90;;;;;;5123250;27;20047;-75
2023/12/06 02:54:20;;;;;;;21.38;15.20;;;1.10;99.90;;;;;;5114348;27;20077;-75
2023/12/06 02:56:46;;;;;;;20.75;15.38;;;1.20;99.90;;;;;;5113315;27;20398;-75
2023/12/06 02:59:11;;;;;;;19.48;13.95;;;1.10;99.90;;;;;;5132090;27;20051;-75
2023/12/06 03:01:37;;;;;;;22.70;15.80;;;1.20;99.90;;;;;;5112997;27;20559;-75
2023/12/06 03:04:05;;;;;;;19.02;13.20;;;1.20;99.90;;;;;;5109360;27;20047;-74
2023/12/06 03:06:31;;;;;;;21.15;16.25;;;1.20;99.90;;;;;;5106971;28;20116;-74
2023/12/06 03:08:56;;;;;;;21.00;15.40;;;1.20;99.90;;;;;;5130369;27;20067;-74
2023/12/06 03:11:22;;;;;;;20.67;15.02;;;1.30;99.90;;;;;;5088696;28;20044;-74
2023/12/06 03:13:48;;;;;;;20.15;14.90;;;1.20;99.90;;;;;;5093781;27;20039;-75
2023/12/06 03:16:13;;;;;;;19.38;14.32;;;1.20;99.90;;;;;;5110480;28;20038;-74
2023/12/06 03:18:39;;;;;;;18.08;13.02;;;1.30;99.90;;;;;;5094950;28;20106;-74
2023/12/06 03:21:06;;;;;;;19.17;13.23;;;1.20;99.90;;;;;;5078801;27;20046;-74
2023/12/06 03:23:32;;;;;;;21.52;15.15;;;1.20;99.90;;;;;;5132411;27;20051;-74
2023/12/06 03:25:57;;;;;;;17.45;13.30;;;1.20;99.90;;;;;;5131864;27;20095;-74
2023/12/06 03:28:23;;;;;;;18.83;14.10;;;1.20;99.90;;;;;;5093541;28;20062;-74
2023/12/06 03:30:49;;;;;;;19.10;13.65;;;1.20;99.90;;;;;;5094124;28;20426;-74
2023/12/06 03:33:14;;;;;;;19.40;13.60;;;1.30;99.90;;;;;;5117538;27;20066;-74
2023/12/06 03:35:40;;;;;;;18.20;13.43;;;1.20;99.90;;;;;;5126005;27;20035;-74
2023/12/06 03:38:06;;;;;;;17.77;12.52;;;1.20;99.90;;;;;;5126931;27;20497;-74
2023/12/06 03:40:31;;;;;;;15.90;12.20;;;1.20;99.90;;;;;;5114450;27;20047;-74
2023/12/06 03:42:57;;;;;;;15.98;11.77;;;1.30;99.90;;;;;;5113946;27;20103;-74
2023/12/06 03:45:23;;;;;;;15.00;10.82;;;1.30;99.90;;;;;;5083046;28;20067;-74
2023/12/06 03:47:48;;;;;;;15.13;10.35;;;1.30;99.90;;;;;;5111327;27;20047;-74
2023/12/06 03:50:14;;;;;;;13.45;9.43;;;1.30;99.90;;;;;;5099014;28;20838;-74
2023/12/06 03:52:40;;;;;;;12.20;9.20;;;1.30;99.90;;;;;;5107156;27;20047;-78
2023/12/06 03:55:05;;;;;;;12.93;10.05;;;1.30;99.90;;;;;;5113046;27;20122;-73
2023/12/06 03:57:31;;;;;;;12.82;9.48;;;1.30;99.90;;;;;;5108891;27;20621;-73
2023/12/06 03:59:57;;;;;;;13.93;10.32;;;1.40;99.90;;;;;;5108142;27;20402;-73
2023/12/06 04:02:22;;;;;;;14.40;10.98;;;1.30;99.90;;;;;;5106570;27;20127;-73
2023/12/06 04:04:48;;;;;;;13.65;10.70;;;1.30;99.90;;;;;;5101094;27;20035;-73
2023/12/06 04:07:14;;;;;;;13.20;9.80;;;1.30;99.90;;;;;;5118418;27;20042;-73
2023/12/06 04:09:39;;;;;;;12.55;9.48;;;1.30;99.90;;;;;;5089063;28;20127;-73
2023/12/06 04:12:06;;;;;;;12.63;9.70;;;1.30;99.90;;;;;;5085729;27;20044;-73
2023/12/06 04:14:31;;;;;;;;;;;1.30;99.90;;;;;;5107915;27;20383;-75
2023/12/06 04:16:57;;;;;;;15.90;11.48;;;1.30;99.90;;;;;;5104493;28;19916;-74
2023/12/06 04:19:23;;;;;;;12.55;10.25;;;1.30;99.90;;;;;;5085166;28;20225;-75
2023/12/06 04:21:48;;;;;;;15.10;10.95;;;1.40;99.90;;;;;;5123411;27;20107;-75
2023/12/06 04:24:14;;;;;;;12.88;10.45;;;1.40;99.90;;;;;;5080002;28;20032;-75
2023/12/06 04:26:40;;;;;;;14.18;10.65;;;1.30;99.90;;;;;;5088428;28;20066;-74
2023/12/06 04:29:05;;;;;;;13.55;11.20;;;1.40;99.90;;;;;;5127524;27;20042;-75
2023/12/06 04:31:31;;;;;;;14.02;11.20;;;1.30;99.90;;;;;;5116555;27;20130;-75
2023/12/06 04:33:57;;;;;;;14.40;11.18;;;1.30;99.90;;;;;;5107483;27;20098;-74
2023/12/06 04:36:22;;;;;;;15.25;11.68;;;1.40;99.90;;;;;;5109499;28;20085;-76
2023/12/06 04:38:48;;;;;;;13.30;9.85;;;1.40;99.90;;;;;;5140243;27;20047;-75
2023/12/06 04:41:14;;;;;;;12.35;8.90;;;1.40;99.90;;;;;;5109058;27;20048;-75
2023/12/06 04:43:40;;;;;;;12.93;9.32;;;1.50;99.90;;;;;;5109134;27;20474;-76
2023/12/06 04:46:05;;;;;;;13.02;10.48;;;1.40;99.90;;;;;;5067952;28;20036;-75
2023/12/06 04:48:31;;;;;;;11.43;9.15;;;1.40;99.90;;;;;;5095827;28;20048;-75
2023/12/06 04:50:57;;;;;;;11.82;9.00;;;1.40;99.90;;;;;;5105293;28;20502;-75
2023/12/06 04:53:22;;;;;;;10.90;7.35;;;1.50;99.90;;;;;;5093039;28;20044;-74
2023/12/06 04:55:48;;;;;;;11.68;9.05;;;1.40;99.90;;;;;;5097954;28;20535;-76
2023/12/06 04:58:14;;;;;;;11.37;8.90;;;1.40;99.90;;;;;;5125790;28;20524;-75
2023/12/06 05:00:39;;;;;;;10.50;7.85;;;1.50;99.90;;;;;;5103612;28;20782;-75
2023/12/06 05:03:05;;;;;;;11.43;8.75;;;1.40;99.90;;;;;;5110773;28;20051;-75
2023/12/06 05:05:31;;;;;;;10.73;8.30;;;1.40;99.90;;;;;;5121343;28;20043;-75
2023/12/06 05:07:56;;;;;;;11.23;8.02;;;1.50;99.90;;;;;;5075353;28;20040;-75
2023/12/06 05:10:22;;;;;;;9.65;6.72;;;1.50;99.90;;;;;;5082016;28;20039;-75
2023/12/06 05:12:48;;;;;;;8.18;6.47;;;1.50;99.90;;;;;;5102266;28;20498;-75
2023/12/06 05:15:14;;;;;;;7.47;5.95;;;1.40;99.90;;;;;;5109487;28;20052;-75
2023/12/06 05:17:40;;;;;;;10.05;7.35;;;1.50;99.90;;;;;;5137639;27;20068;-76
2023/12/06 05:20:06;;;;;;;10.35;7.22;;;1.50;99.90;;;;;;5107720;28;20047;-77
2023/12/06 05:22:33;;;;;;;;;;;1.50;99.90;;;;;;5085586;28;20397;-77
2023/12/06 05:24:59;;;;;;;13.45;8.88;;;1.50;99.90;;;;;;5107244;28;20320;-77
2023/12/06 05:27:25;;;;;;;11.38;8.48;;;1.60;99.90;;;;;;5086390;28;20035;-77
2023/12/06 05:29:51;;;;;;;9.30;7.38;;;1.50;99.90;;;;;;5106768;28;20059;-77
2023/12/06 05:32:17;;;;;;;9.85;7.70;;;1.50;99.90;;;;;;5071125;28;20093;-77
2023/12/06 05:34:42;;;;;;;9.05;7.10;;;1.50;99.90;;;;;;5089369;28;20071;-77
2023/12/06 05:37:08;;;;;;;11.63;8.80;;;1.40;99.90;;;;;;5105974;28;20110;-77
2023/12/06 05:39:36;;;;;;;12.63;9.13;;;1.50;99.90;;;;;;5106777;28;20039;-77
2023/12/06 05:42:03;;;;;;;11.73;9.23;;;1.60;99.90;;;;;;5105826;28;20051;-77
2023/12/06 05:44:30;;;;;;;13.85;9.93;;;1.60;99.90;;;;;;5102330;28;20039;-77
2023/12/06 05:46:56;;;;;;;11.45;9.15;;;1.60;99.90;;;;;;5081830;28;20036;-77
2023/12/06 05:49:23;;;;;;;12.10;9.65;;;1.70;99.90;;;;;;5108476;28;20104;-77
2023/12/06 05:51:48;;;;;;;10.90;8.63;;;1.70;99.90;;;;;;5112819;28;20039;-78
2023/12/06 05:54:14;;;;;;;11.10;8.93;;;1.80;99.90;;;;;;5087091;28;20046;-77
2023/12/06 05:56:40;;;;;;;13.32;9.60;;;1.70;99.90;;;;;;5100585;28;20138;-76
2023/12/06 05:59:06;;;;;;;12.70;8.65;;;1.70;99.90;;;;;;5100092;28;20063;-76
2023/12/06 06:01:32;;;;;;;10.07;8.13;;;1.80;99.90;;;;;;5086276;28;20044;-77
2023/12/06 06:03:57;;;;;;;9.43;7.65;;;1.80;99.90;;;;;;5085641;28;20197;-77
2023/12/06 06:06:23;;;;;;;8.63;6.78;;;1.70;99.90;;;;;;5103153;28;20126;-77
2023/12/06 06:08:49;;;;;;;10.57;8.10;;;1.80;99.90;;;;;;5130219;27;20048;-77
2023/12/06 06:11:15;;;;;;;10.75;8.75;;;1.80;99.90;;;;;;5102555;28;20043;-77
2023/12/06 06:13:58;;;;;;;9.50;8.00;;;1.80;99.90;;;;;;5103725;28;20482;-77
2023/12/06 06:16:24;;;;;;;10.65;8.07;;;1.80;99.90;;;;;;5083179;27;20038;-78
2023/12/06 06:18:50;;;;;;;9.27;7.15;;;1.90;99.90;;;;;;5103419;27;20039;-76
2023/12/06 06:21:16;;;;;;;9.13;6.90;;;1.80;99.90;;;;;;5103808;27;20378;-76
2023/12/06 06:23:41;;;;;;;8.50;6.53;;;1.90;99.90;;;;;;5104536;27;20667;-76
2023/12/06 06:26:08;;;;;;;8.60;6.60;;;1.70;99.90;;;;;;5102176;27;20098;-77
2023/12/06 06:28:34;;;;;;;7.85;6.20;;;1.80;99.90;;;;;;5104222;27;20035;-77
2023/12/06 06:31:00;;;;;;;10.48;7.68;;;1.80;99.90;;;;;;5103699;28;20070;-77
2023/12/06 06:33:26;;;;;;;11.05;8.52;;;1.90;99.90;;;;;;5089257;28;20410;-76
2023/12/06 06:35:51;;;;;;;10.20;8.50;;;1.80;99.90;;;;;;5095502;28;20055;-76
2023/12/06 06:38:17;;;;;;;9.57;7.63;;;1.90;99.90;;;;;;5088217;28;20038;-76
2023/12/06 06:40:43;;;;;;;8.60;6.82;;;1.80;99.90;;;;;;5104976;28;20071;-75
2023/12/06 06:43:08;;;;;;;9.70;7.28;;;1.90;99.90;;;;;;5115651;27;20483;-76
2023/12/06 06:45:35;;;;;;;7.10;5.90;;;1.80;99.90;;;;;;5110638;28;20509;-76
2023/12/06 06:48:01;;;;;;;6.80;5.75;;;1.90;99.90;;;;;;5089134;28;20040;-77
2023/12/06 06:50:27;;;;;;;7.00;5.82;;;1.90;99.90;;;;;;5105003;28;20720;-77
2023/12/06 06:52:52;;;;;;;7.05;5.43;;;1.80;99.90;;;;;;5108748;27;20391;-76
2023/12/06 06:55:18;;;;;;;6.78;5.70;;;1.80;99.90;;;;;;5102927;28;20035;-77
2023/12/06 06:57:44;;;;;;;8.27;5.47;;;1.80;99.90;;;;;;5110512;28;20044;-78
2023/12/06 07:00:10;;;;;;;6.13;5.18;;;1.70;99.90;;;;;;5093983;28;20035;-78
2023/12/06 07:02:35;;;;;;;8.18;5.85;;;1.80;99.90;;;;;;5109260;28;20127;-77
2023/12/06 07:05:02;;;;;;;8.25;6.13;;;1.80;99.90;;;;;;5096784;28;20134;-77
2023/12/06 07:07:28;;;;;;;8.43;6.75;;;1.80;99.90;;;;;;5107646;27;20043;-77
2023/12/06 07:09:53;;;;;;;8.18;6.60;;;1.70;99.90;;;;;;5101271;27;20043;-78
2023/12/06 07:12:20;;;;;;;6.95;5.90;;;1.80;99.90;;;;;;5129997;27;20035;-77
2023/12/06 07:14:46;;;;;;;7.15;5.88;;;1.70;99.90;;;;;;5107404;27;20461;-77
2023/12/06 07:17:11;;;;;;;8.10;6.82;;;1.70;99.90;;;;;;5085468;28;20047;-78
2023/12/06 07:19:37;;;;;;;10.85;7.90;;;1.80;99.90;;;;;;5066028;28;20435;-75
2023/12/06 07:22:03;;;;;;;9.35;8.00;;;1.80;99.90;;;;;;5104858;28;20170;-75
2023/12/06 07:24:29;;;;;;;10.57;8.25;;;1.80;99.90;;;;;;5095956;28;20482;-75
2023/12/06 07:26:54;;;;;;;9.63;7.82;;;1.90;99.90;;;;;;5101127;28;20040;-75
2023/12/06 07:29:20;;;;;;;9.15;7.38;;;2.00;99.90;;;;;;5094278;28;20051;-75
2023/12/06 07:31:46;;;;;;;9.93;7.97;;;2.00;99.90;;;;;;5127010;27;20130;-75
2023/12/06 07:34:11;;;;;;;10.02;7.38;;;2.00;99.90;;;;;;5109689;27;20077;-75
2023/12/06 07:36:37;;;;;;;9.18;7.53;;;2.00;99.90;;;;;;5083575;27;20035;-75
2023/12/06 07:39:05;;;;;;;8.27;7.40;;;2.00;99.90;;;;;;5093713;28;20109;-75
2023/12/06 07:41:31;;;;;;;10.93;8.23;;;2.00;99.90;;;;;;5103189;27;20066;-75
2023/12/06 07:43:57;;;;;;;11.82;9.55;;;2.00;99.90;;;;;;5107676;28;20036;-75
2023/12/06 07:46:23;;;;;;;10.90;9.20;;;2.10;99.90;;;;;;5118937;27;20384;-75
2023/12/06 07:48:48;;;;;;;10.97;8.53;;;2.10;99.90;;;;;;5117002;27;20039;-75
2023/12/06 07:51:15;;;;;;;10.85;8.40;;;2.10;99.90;;;;;;5090027;28;20305;-75
2023/12/06 07:53:41;;;;;;;10.98;8.60;;;2.20;99.90;;;;;;5108552;28;20044;-75
2023/12/06 07:56:07;;;;;;;9.65;8.05;;;2.20;99.90;;;;;;5122535;27;20047;-75
2023/12/06 07:58:33;;;;;;;13.60;9.75;;;2.10;99.90;;;;;;5110987;28;20099;-75
2023/12/06 08:00:59;;;;;;;12.57;10.43;;;2.10;99.90;;;;;;5103380;28;20472;-76
2023/12/06 08:03:31;;;;;;;;;;;2.10;99.90;;;;;;5101402;28;20047;-76
2023/12/06 08:05:59;;;;;;;11.35;8.40;;;2.10;99.90;;;;;;5095716;28;20010;-75
2023/12/06 08:08:26;;;;;;;9.85;7.10;;;2.20;99.90;;;;;;5101452;27;20379;-75
2023/12/06 08:10:52;;;;;;;7.90;6.90;;;2.20;99.90;;;;;;5122205;27;20050;-75
2023/12/06 08:13:18;;;;;;;;;;;2.10;99.90;;;;;;5096430;27;20108;-75
2023/12/06 08:15:44;;;;;;;8.45;6.40;;;2.10;99.90;;;;;;5081914;27;19916;-77
2023/12/06 08:18:10;;;;;;;12.55;8.20;;;2.10;99.90;;;;;;5110458;27;20127;-77
2023/12/06 08:20:36;;;;;;;11.30;9.25;;;2.10;99.90;;;;;;5110139;27;20515;-77
2023/12/06 08:23:03;;;;;;;14.68;11.15;;;2.20;99.90;;;;;;5083136;28;20089;-77
2023/12/06 08:25:29;;;;;;;13.23;10.45;;;2.20;99.90;;;;;;5091356;28;20039;-77
2023/12/06 08:27:55;;;;;;;12.43;11.10;;;2.30;99.90;;;;;;5085246;28;20793;-78
2023/12/06 08:30:21;;;;;;;13.55;10.82;;;2.30;99.90;;;;;;5102123;28;20060;-78
2023/12/06 08:32:46;;;;;;;14.35;10.48;;;2.30;99.90;;;;;;5097440;28;20047;-78
2023/12/06 08:35:13;;;;;;;15.15;12.00;;;2.30;99.90;;;;;;5109209;28;20032;-78
2023/12/06 08:37:40;;;;;;;16.38;11.75;;;2.30;99.90;;;;;;5107090;28;20040;-78
2023/12/06 08:40:08;;;;;;;13.77;10.82;;;2.40;99.90;;;;;;5109393;28;20047;-77
2023/12/06 08:42:34;;;;;;;15.60;10.90;;;2.50;99.90;;;;;;5110213;28;20047;-76
2023/12/06 08:45:00;;;;;;;11.27;8.00;;;2.50;99.90;;;;;;5111676;28;20054;-76
2023/12/06 08:47:25;;;;;;;12.05;9.95;;;2.40;99.90;;;;;;5103621;28;20086;-77
2023/12/06 08:49:51;;;;;;;13.23;10.05;;;2.50;99.90;;;;;;5107043;28;20375;-77
2023/12/06 08:52:17;;;;;;;12.00;8.93;;;2.40;99.90;;;;;;5092216;28;20044;-77
2023/12/06 08:54:43;;;;;;;9.93;8.48;;;2.40;99.90;;;;;;5106220;28;20449;-76
2023/12/06 08:57:08;;;;;;;10.00;8.82;;;2.50;99.90;;;;;;5091381;28;20044;-76
2023/12/06 08:59:34;;;;;;;11.25;9.27;;;2.40;99.90;;;;;;5113769;28;20035;-77
2023/12/06 09:02:00;;;;;;;9.27;7.78;;;2.50;99.90;;;;;;5092293;28;20051;-76
2023/12/06 09:04:26;;;;;;;11.75;8.98;;;2.40;99.90;;;;;;5082518;28;20044;-76
2023/12/06 09:06:51;;;;;;;13.10;8.88;;;2.40;99.90;;;;;;5103874;28;20054;-76
2023/12/06 09:09:17;;;;;;;10.60;8.55;;;2.50;99.90;;;;;;5093725;28;20058;-76
2023/12/06 09:11:46;;;;;;;10.68;8.52;;;2.50;99.90;;;;;;5105316;28;20470;-75
2023/12/06 09:14:12;;;;;;;10.98;8.60;;;2.50;99.90;;;;;;5095852;28;20046;-75
2023/12/06 09:16:39;;;;;;;10.82;8.50;;;2.50;99.90;;;;;;5101500;28;20050;-75
2023/12/06 09:19:05;;;;;;;10.50;7.85;;;2.50;99.90;;;;;;5097920;28;20039;-75
2023/12/06 09:21:45;;;;;;;10.13;7.03;;;2.50;99.90;;;;;;5122185;28;20047;-76
2023/12/06 09:24:11;;;;;;;10.10;8.70;;;2.50;99.90;;;;;;5114229;27;20035;-76
2023/12/06 09:26:37;;;;;;;10.88;8.55;;;2.50;99.90;;;;;;5113478;28;20043;-76
2023/12/06 09:29:05;;;;;;;;;;;2.60;99.90;;;;;;5118657;28;20054;-76
2023/12/06 09:31:34;;;;;;;10.13;8.48;;;2.50;99.90;;;;;;5099684;28;19946;-76
2023/12/06 09:34:01;;;;;;;9.68;8.20;;;2.60;99.90;;;;;;5109288;28;20480;-75
2023/12/06 09:36:28;;;;;;;11.88;8.82;;;2.60;99.90;;;;;;5113477;28;20044;-76
2023/12/06 09:39:00;;;;;;;11.43;9.60;;;2.60;99.90;;;;;;5128098;28;20031;-76
2023/12/06 09:41:31;;;;;;;12.40;10.20;;;2.70;99.90;;;;;;5099957;27;21406;-75
2023/12/06 09:43:57;;;;;;;14.52;9.82;;;2.70;99.90;;;;;;5097297;27;20044;-75
2023/12/06 09:46:23;;;;;;;12.30;9.30;;;2.80;99.90;;;;;;5093056;27;20043;-75
2023/12/06 09:48:49;;;;;;;12.43;9.27;;;2.70;99.90;;;;;;5119554;27;20043;-75
2023/12/06 09:51:17;;;;;;;11.45;8.30;;;2.80;99.90;;;;;;5114095;27;20193;-75
2023/12/06 09:53:44;;;;;;;9.20;7.80;;;2.80;99.90;;;;;;5088871;27;20066;-75
2023/12/06 09:56:10;;;;;;;;;;;2.90;99.90;;;;;;5084915;27;20038;-75
2023/12/06 09:58:36;;;;;;;8.73;7.65;;;2.90;99.90;;;;;;5084594;28;19932;-75
2023/12/06 10:01:02;;;;;;;10.40;8.32;;;2.90;99.90;;;;;;5123982;27;20034;-76
2023/12/06 10:03:28;;;;;;;9.60;7.80;;;2.80;99.90;;;;;;5114874;27;20051;-76
2023/12/06 10:05:56;;;;;;;14.50;9.02;;;2.90;99.90;;;;;;5122306;27;20039;-76
2023/12/06 10:08:22;;;;;;;10.68;8.05;;;2.90;99.90;;;;;;5101070;28;20048;-75
2023/12/06 10:10:48;;;;;;;11.60;7.88;;;2.90;99.90;;;;;;5124262;27;20390;-76
2023/12/06 10:13:14;;;;;;;9.85;7.88;;;2.90;99.90;;;;;;5110101;27;20085;-78
2023/12/06 10:15:42;;;;;;;10.85;7.90;;;2.80;99.90;;;;;;5076186;27;20441;-76
2023/12/06 10:18:10;;;;;;;11.43;8.55;;;2.90;99.90;;;;;;5111002;27;20569;-76
2023/12/06 10:20:36;;;;;;;11.38;8.65;;;2.90;99.90;;;;;;5102533;27;20039;-76
2023/12/06 10:23:02;;;;;;;11.90;9.52;;;2.90;99.90;;;;;;5110934;27;20402;-76
2023/12/06 10:25:37;;;;;;;12.73;9.77;;;3.00;99.90;;;;;;5112468;27;20394;-76
2023/12/06 10:28:03;;;;;;;13.07;9.63;;;3.00;99.90;;;;;;5105294;28;20045;-75
2023/12/06 10:30:29;;;;;;;14.07;9.43;;;3.00;99.90;;;;;;5111522;28;20051;-74
2023/12/06 10:32:56;;;;;;;13.65;9.40;;;3.10;99.90;;;;;;5113697;27;20138;-75
2023/12/06 10:35:25;;;;;;;12.70;9.48;;;3.10;99.90;;;;;;5112022;27;20043;-75
2023/12/06 10:37:51;;;;;;;13.25;9.23;;;3.10;99.90;;;;;;5141055;27;20055;-75
2023/12/06 10:40:19;;;;;;;11.95;8.35;;;3.20;99.90;;;;;;5106531;27;20039;-76
2023/12/06 10:42:50;;;;;;;11.85;8.20;;;3.20;99.90;;;;;;5076872;28;20048;-76
2023/12/06 10:45:18;;;;;;;10.52;8.27;;;3.20;99.90;;;;;;5088851;27;20413;-76
2023/12/06 10:47:44;;;;;;;11.20;8.18;;;3.20;99.90;;;;;;5098568;28;20505;-76
2023/12/06 10:50:11;;;;;;;9.45;7.78;;;3.20;99.90;;;;;;5079632;27;20047;-75
2023/12/06 10:52:39;;;;;;;8.30;7.40;;;3.20;99.90;;;;;;5086514;28;20054;-76
2023/12/06 10:55:06;;;;;;;10.57;8.38;;;3.20;99.90;;;;;;5106595;27;20121;-75
2023/12/06 10:57:33;;;;;;;12.23;8.98;;;3.20;99.90;;;;;;5091656;28;20087;-73
2023/12/06 11:00:00;;;;;;;12.23;8.65;;;3.20;99.90;;;;;;5097801;28;20043;-73
2023/12/06 11:02:26;;;;;;;11.32;8.00;;;3.20;99.90;;;;;;5095289;28;20051;-75
2023/12/06 11:04:57;;;;;;;9.57;7.15;;;3.20;99.90;;;;;;5094943;28;20050;-74
2023/12/06 11:07:53;;;;;;;11.90;7.60;;;3.20;99.90;;;;;;5103372;28;20044;-75
2023/12/06 11:10:38;;;;;;;10.10;8.77;;;3.20;99.90;;;;;;5133735;27;20048;-75
2023/12/06 11:13:32;;;;;;;10.45;8.23;;;3.20;99.90;;;;;;5082977;28;20498;-75
2023/12/06 11:16:20;;;;;;;9.63;8.32;;;3.30;99.90;;;;;;5099012;27;20044;-75
2023/12/06 11:18:49;;;;;;;11.43;8.50;;;3.30;99.90;;;;;;5104606;28;20515;-75
2023/12/06 11:21:18;;;;;;;11.77;7.97;;;3.30;99.90;;;;;;5100178;27;20410;-75
2023/12/06 11:23:45;;;;;;;10.93;8.32;;;3.30;99.90;;;;;;5094093;28;20035;-75
2023/12/06 11:26:11;;;;;;;8.73;7.43;;;3.30;99.90;;;;;;5118516;27;20045;-75
2023/12/06 11:28:41;;;;;;;10.23;7.90;;;3.40;99.90;;;;;;5116242;27;20122;-80
2023/12/06 11:31:11;;;;;;;9.55;7.60;;;3.40;99.90;;;;;;5109689;27;20575;-75
2023/12/06 11:33:37;;;;;;;9.82;7.32;;;3.40;99.90;;;;;;5097560;28;20051;-75
2023/12/06 11:36:03;;;;;;;9.00;7.05;;;3.40;99.90;;;;;;5107499;27;20078;-75
2023/12/06 11:38:37;;;;;;;9.50;7.53;;;3.40;99.90;;;;;;5112548;27;20115;-76
2023/12/06 11:41:06;;;;;;;8.07;6.53;;;3.40;99.90;;;;;;5091063;27;20117;-76
2023/12/06 11:43:33;;;;;;;7.93;6.72;;;3.40;99.90;;;;;;5121327;27;20417;-76
2023/12/06 11:46:07;;;;;;;9.68;7.18;;;3.40;99.90;;;;;;5098543;28;20142;-76
2023/12/06 11:48:37;;;;;;;10.25;6.50;;;3.40;99.90;;;;;;5105537;27;20047;-74
2023/12/06 11:51:04;;;;;;;9.25;7.55;;;3.40;99.90;;;;;;5108581;27;20546;-75
2023/12/06 11:53:30;;;;;;;9.65;7.15;;;3.40;99.90;;;;;;5110447;28;20055;-75
2023/12/06 11:55:56;;;;;;;12.13;7.40;;;3.40;99.90;;;;;;5144626;27;20486;-75
2023/12/06 11:58:28;;;;;;;8.30;7.05;;;3.40;99.90;;;;;;5144595;27;20047;-75
2023/12/06 12:00:54;;;;;;;9.68;7.00;;;3.40;99.90;;;;;;5092437;28;20167;-78
2023/12/06 12:03:20;;;;;;;;;;;3.40;99.90;;;;;;5098742;28;20050;-75
2023/12/06 12:05:46;;;;;;;7.75;6.18;;;3.40;99.90;;;;;;5110365;28;19919;-75
2023/12/06 12:08:13;;;;;;;7.85;6.10;;;3.40;99.90;;;;;;5116532;27;20043;-75
2023/12/06 12:10:43;;;;;;;7.45;6.18;;;3.40;99.90;;;;;;5107609;27;20043;-75
2023/12/06 12:13:19;;;;;;;8.27;6.30;;;3.40;99.90;;;;;;5101493;27;20061;-75
2023/12/06 12:15:57;;;;;;;10.27;7.00;;;3.50;99.90;;;;;;5130951;27;20106;-75
2023/12/06 12:18:27;;;;;;;8.32;5.90;;;3.40;99.90;;;;;;5109411;27;20082;-75
2023/12/06 12:20:55;;;;;;;7.72;6.63;;;3.50;99.90;;;;;;5134677;27;20055;-75
2023/12/06 12:23:21;;;;;;;6.72;6.03;;;3.50;99.90;;;;;;5101450;27;20117;-75
2023/12/06 12:25:48;;;;;;;6.70;5.82;;;3.40;99.90;;;;;;5107261;28;20134;-75
2023/12/06 12:28:18;;;;;;;7.00;5.50;;;3.40;99.90;;;;;;5100161;28;20039;-75
2023/12/06 12:30:50;;;;;;;8.27;6.10;;;3.50;99.90;;;;;;5089623;28;20084;-75
2023/12/06 12:33:17;;;;;;;6.95;5.80;;;3.40;99.90;;;;;;5107903;27;20047;-75
2023/12/06 12:35:44;;;;;;;7.70;6.05;;;3.40;99.90;;;;;;5116299;27;20048;-75
2023/12/06 12:38:10;;;;;;;7.18;5.90;;;3.40;99.90;;;;;;5096953;28;20131;-75
2023/12/06 12:40:38;;;;;;;7.13;6.05;;;3.40;99.90;;;;;;5078139;28;20123;-75
2023/12/06 12:43:04;;;;;;;6.97;5.68;;;3.40;99.90;;;;;;5118498;27;20051;-75
2023/12/06 12:45:30;;;;;;;7.32;5.75;;;3.40;99.90;;;;;;5114057;27;20068;-75